Time;durP1;ratioP1;P1;durP2;ratioP2;P2;SDS_P1;SDS_P2;PMS_P1;PMS_P2;Temp;Humidity;BMP_temperature;BMP_pressure;BME280_temperature;BME280_humidity;BME280_pressure;Samples;Min_cycle;Max_cycle;Signal;HPM_P1;HPM_P2
2021/08/06 00:00:34;;;;;;;6.00;4.85;;;;;;;26.71;57.60;98758.96;1843641;77;21072;-70
2021/08/06 00:03:01;;;;;;;6.25;4.72;;;;;;;26.73;57.47;98735.52;1846524;77;21804;-70
2021/08/06 00:05:27;;;;;;;7.90;4.67;;;;;;;26.75;57.21;98728.65;1841278;77;21111;-71
2021/08/06 00:07:54;;;;;;;6.05;4.40;;;;;;;26.76;57.39;98717.22;1847538;77;21024;-70
2021/08/06 00:10:20;;;;;;;4.78;4.28;;;;;;;26.78;57.21;98725.90;1848969;77;21064;-70
2021/08/06 00:12:46;;;;;;;5.78;4.53;;;;;;;26.80;57.24;98740.83;1836358;77;21059;-70
2021/08/06 00:15:14;;;;;;;5.10;4.60;;;;;;;26.82;57.23;98726.91;1846887;77;21094;-70
2021/08/06 00:17:40;;;;;;;4.78;4.30;;;;;;;26.83;56.88;98727.98;1845005;77;21083;-70
2021/08/06 00:20:08;;;;;;;6.87;4.50;;;;;;;26.81;56.86;98709.77;1847921;77;21025;-71
2021/08/06 00:22:35;;;;;;;5.53;4.35;;;;;;;26.79;56.97;98721.52;1835299;77;21049;-71
2021/08/06 00:25:02;;;;;;;6.17;4.12;;;;;;;26.78;56.76;98718.52;1831798;77;21119;-70
2021/08/06 00:27:31;;;;;;;5.30;4.20;;;;;;;26.75;56.89;98709.58;1828605;77;21132;-72
2021/08/06 00:29:57;;;;;;;7.40;4.75;;;;;;;26.75;56.74;98697.88;1827435;77;21008;-71
2021/08/06 00:32:24;;;;;;;6.47;4.62;;;;;;;26.75;56.69;98713.66;1832607;77;21037;-72
2021/08/06 00:34:52;;;;;;;5.78;4.35;;;;;;;26.75;56.55;98711.50;1831041;77;21029;-70
2021/08/06 00:37:18;;;;;;;5.83;4.35;;;;;;;26.74;56.51;98720.23;1836812;77;21143;-71
2021/08/06 00:39:47;;;;;;;7.50;4.47;;;;;;;26.68;56.35;98699.09;1835466;77;21127;-71
2021/08/06 00:42:13;;;;;;;5.08;4.12;;;;;;;26.60;56.39;98697.63;1835682;77;21446;-71
2021/08/06 00:44:40;;;;;;;6.97;4.15;;;;;;;26.54;56.53;98679.70;1830431;77;21030;-70
2021/08/06 00:47:07;;;;;;;7.28;3.83;;;;;;;26.46;56.37;98693.45;1839082;77;21581;-70
2021/08/06 00:49:35;;;;;;;8.00;3.95;;;;;;;26.38;56.68;98704.47;1808274;77;21041;-71
2021/08/06 00:52:03;;;;;;;6.97;4.05;;;;;;;26.31;56.83;98680.09;1834605;77;21765;-70
2021/08/06 00:54:31;;;;;;;5.37;3.70;;;;;;;26.27;56.83;98673.09;1837876;77;21453;-71
2021/08/06 00:57:05;;;;;;;6.45;4.00;;;;;;;26.24;56.87;98669.03;1830421;77;21496;-70
2021/08/06 00:59:34;;;;;;;4.87;3.10;;;;;;;26.25;57.15;98656.23;1838081;77;21120;-70
2021/08/06 01:02:12;;;;;;;6.60;3.65;;;;;;;26.25;57.04;98656.23;1810408;77;21187;-70
2021/08/06 01:04:51;;;;;;;5.78;3.70;;;;;;;26.25;57.12;98661.67;1837911;77;21082;-70
2021/08/06 01:07:26;;;;;;;3.67;3.00;;;;;;;26.23;57.01;98666.08;1828175;77;21541;-71
2021/08/06 01:09:56;;;;;;;4.12;3.27;;;;;;;26.22;56.99;98636.42;1832997;77;21036;-70
2021/08/06 01:12:42;;;;;;;8.28;3.25;;;;;;;26.20;56.94;98661.77;1829807;77;21619;-71
2021/08/06 01:17:37;;;;;;;4.25;3.10;;;;;;;26.09;57.29;98632.55;1839026;77;22431;-72
2021/08/06 01:20:21;;;;;;;4.65;2.85;;;;;;;26.01;57.03;98610.10;1839088;77;21368;-71
2021/08/06 01:22:59;;;;;;;4.35;2.77;;;;;;;25.97;57.06;98611.25;1840167;77;21587;-71
2021/08/06 01:25:41;;;;;;;6.28;3.20;;;;;;;25.93;57.04;98624.39;1822413;77;21019;-73
2021/08/06 01:28:07;;;;;;;5.92;3.08;;;;;;;25.86;57.06;98603.79;1840949;77;21141;-73
2021/08/06 01:30:35;;;;;;;3.65;3.10;;;;;;;25.84;57.17;98588.84;1838793;77;21045;-71
2021/08/06 01:33:04;;;;;;;3.33;2.70;;;;;;;25.85;57.30;98616.31;1808780;78;21081;-70
2021/08/06 01:35:31;;;;;;;4.47;2.72;;;;;;;25.87;57.17;98595.87;1742270;80;21513;-69
2021/08/06 01:37:57;;;;;;;7.85;3.22;;;;;;;25.90;56.92;98564.53;1761431;79;21091;-70
2021/08/06 01:40:24;;;;;;;3.87;3.58;;;;;;;25.92;56.91;98572.43;1790304;79;21093;-72
2021/08/06 01:43:04;;;;;;;4.05;2.92;;;;;;;25.93;56.83;98556.38;1794334;79;21795;-69
2021/08/06 01:45:35;;;;;;;5.12;2.85;;;;;;;25.88;56.42;98496.02;1757210;79;21101;-69
2021/08/06 01:48:02;;;;;;;5.78;2.77;;;;;;;25.83;56.57;98479.80;1766614;79;21592;-71
2021/08/06 01:50:34;;;;;;;6.00;3.35;;;;;;;25.82;56.57;98449.05;1782619;79;21057;-72
2021/08/06 01:53:04;;;;;;;;;;;;;;;25.81;56.31;98449.38;1794507;79;21116;-69
2021/08/06 01:55:40;;;;;;;4.62;2.87;;;;;;;25.80;56.31;98446.39;1790313;79;21207;-70
2021/08/06 01:58:11;;;;;;;5.95;2.80;;;;;;;25.72;56.54;98411.73;1793828;79;21075;-71
2021/08/06 02:00:40;;;;;;;4.40;2.40;;;;;;;25.72;56.77;98388.61;1793950;79;21577;-69
2021/08/06 02:03:07;;;;;;;3.87;2.77;;;;;;;25.72;56.68;98388.61;1788832;79;21016;-70
2021/08/06 02:05:34;;;;;;;2.75;2.47;;;;;;;25.70;56.61;98403.30;1794322;79;21592;-70
2021/08/06 02:08:05;;;;;;;4.22;2.70;;;;;;;25.66;56.67;98439.00;1789513;79;21054;-70
2021/08/06 02:10:31;;;;;;;5.05;3.62;;;;;;;25.65;57.01;98503.20;1761808;79;21003;-69
2021/08/06 02:13:01;;;;;;;3.20;2.72;;;;;;;25.67;57.08;98548.05;1792529;79;21082;-72
2021/08/06 02:15:28;;;;;;;3.30;2.50;;;;;;;25.69;57.23;98530.05;1791099;79;21046;-68
2021/08/06 02:17:54;;;;;;;3.37;2.67;;;;;;;25.72;56.84;98481.08;1794197;79;21080;-69
2021/08/06 02:20:38;;;;;;;4.40;2.72;;;;;;;25.75;56.84;98475.85;1795161;79;21613;-69
2021/08/06 02:23:07;;;;;;;4.97;2.70;;;;;;;25.79;56.76;98463.83;1796528;79;21107;-69
2021/08/06 02:25:34;;;;;;;4.47;2.40;;;;;;;25.80;56.61;98485.27;1788823;79;21397;-70
2021/08/06 02:28:02;;;;;;;2.47;2.27;;;;;;;25.81;56.80;98499.69;1790832;79;21716;-69
2021/08/06 02:30:31;;;;;;;3.27;2.40;;;;;;;25.85;56.74;98518.39;1790581;79;21135;-70
2021/08/06 02:32:58;;;;;;;3.05;2.60;;;;;;;25.88;56.69;98503.64;1761280;79;21823;-71
2021/08/06 02:35:25;;;;;;;2.98;2.22;;;;;;;25.90;56.69;98510.12;1764894;79;21653;-70
2021/08/06 02:37:52;;;;;;;3.20;2.50;;;;;;;25.93;56.70;98492.44;1796869;79;21306;-70
2021/08/06 02:40:18;;;;;;;5.62;2.87;;;;;;;25.95;56.72;98487.50;1785280;79;21528;-71
2021/08/06 02:42:45;;;;;;;3.47;2.10;;;;;;;25.97;56.75;98490.17;1796419;79;21131;-71
2021/08/06 02:45:12;;;;;;;2.90;2.25;;;;;;;25.99;56.73;98482.52;1790804;79;21215;-70
2021/08/06 02:47:39;;;;;;;3.45;2.50;;;;;;;26.03;56.71;98486.80;1793567;79;21041;-69
2021/08/06 02:50:07;;;;;;;4.17;2.65;;;;;;;26.04;56.69;98471.55;1796479;79;21068;-70
2021/08/06 02:52:34;;;;;;;10.30;3.10;;;;;;;26.05;56.49;98460.09;1791859;79;21092;-70
2021/08/06 02:55:01;;;;;;;4.42;2.70;;;;;;;26.06;56.38;98459.80;1795620;79;21094;-70
2021/08/06 02:57:27;;;;;;;2.80;2.08;;;;;;;26.08;56.33;98469.03;1789397;79;21272;-70
2021/08/06 02:59:54;;;;;;;4.42;2.50;;;;;;;26.06;56.19;98461.72;1794329;79;21060;-70
2021/08/06 03:02:21;;;;;;;3.20;2.33;;;;;;;26.03;56.10;98457.67;1794093;79;21061;-70
2021/08/06 03:04:47;;;;;;;3.05;2.77;;;;;;;26.02;56.06;98451.99;1792911;79;21018;-70
2021/08/06 03:07:20;;;;;;;6.28;2.67;;;;;;;25.99;55.99;98449.06;1788052;79;21005;-70
2021/08/06 03:09:47;;;;;;;4.25;2.77;;;;;;;25.98;56.12;98447.44;1770286;79;21119;-70
2021/08/06 03:12:14;;;;;;;4.03;2.52;;;;;;;25.98;56.08;98448.27;1802936;78;21036;-71
2021/08/06 03:14:41;;;;;;;2.80;2.60;;;;;;;25.99;55.93;98436.26;1794162;79;21612;-70
2021/08/06 03:17:07;;;;;;;2.92;2.20;;;;;;;25.97;56.01;98442.55;1791052;79;21021;-68
2021/08/06 03:19:35;;;;;;;3.30;2.33;;;;;;;25.97;56.09;98434.95;1796629;79;21570;-69
2021/08/06 03:22:04;;;;;;;2.83;2.40;;;;;;;25.96;56.08;98434.16;1774104;79;21160;-69
2021/08/06 03:24:32;;;;;;;3.98;2.77;;;;;;;25.97;56.08;98435.75;1765709;80;21053;-68
2021/08/06 03:27:00;;;;;;;4.58;2.45;;;;;;;25.98;56.06;98451.52;1769466;79;21086;-68
2021/08/06 03:29:27;;;;;;;3.45;2.40;;;;;;;25.99;56.10;98450.42;1770650;79;21056;-69
2021/08/06 03:31:54;;;;;;;3.30;2.00;;;;;;;25.98;56.01;98437.38;1769408;79;21073;-70
2021/08/06 03:34:21;;;;;;;3.00;2.27;;;;;;;25.97;56.17;98445.28;1764796;79;22700;-72
2021/08/06 03:36:49;;;;;;;6.67;5.97;;;;;;;25.98;56.20;98439.27;1772885;79;21072;-72
2021/08/06 03:39:17;;;;;;;4.42;3.58;;;;;;;26.00;56.25;98449.30;1797513;78;21517;-72
2021/08/06 03:41:43;;;;;;;4.28;3.33;;;;;;;26.00;56.19;98452.02;1798637;79;21140;-71
2021/08/06 03:44:10;;;;;;;6.17;3.30;;;;;;;25.99;56.23;98455.86;1801178;78;21037;-73
2021/08/06 03:46:37;;;;;;;3.70;3.02;;;;;;;25.98;56.45;98453.70;1800399;79;22096;-72
2021/08/06 03:49:04;;;;;;;4.25;2.98;;;;;;;26.01;56.36;98450.92;1793945;78;21101;-71
2021/08/06 03:51:32;;;;;;;3.30;3.00;;;;;;;26.02;56.40;98442.47;1800365;79;21052;-72
2021/08/06 03:53:59;;;;;;;4.40;2.52;;;;;;;26.04;56.29;98446.25;1800700;78;21108;-71
2021/08/06 03:56:25;;;;;;;3.47;2.85;;;;;;;26.02;56.24;98441.64;1792887;78;21015;-71
2021/08/06 03:58:53;;;;;;;4.08;2.80;;;;;;;26.00;56.37;98443.33;1797880;78;21257;-71
2021/08/06 04:01:20;;;;;;;4.47;3.00;;;;;;;26.00;56.33;98443.33;1788894;78;21085;-71
2021/08/06 04:03:48;;;;;;;4.85;2.65;;;;;;;26.00;56.34;98471.89;1797711;78;21096;-70
2021/08/06 04:06:15;;;;;;;5.62;3.00;;;;;;;26.00;56.40;98458.83;1797724;78;21080;-70
2021/08/06 04:08:42;;;;;;;4.45;2.85;;;;;;;26.02;56.51;98466.12;1799372;78;21038;-70
2021/08/06 04:11:08;;;;;;;4.17;2.55;;;;;;;26.04;56.47;98466.66;1788631;78;22754;-69
2021/08/06 04:13:36;;;;;;;7.12;2.90;;;;;;;26.05;56.30;98481.30;1764984;79;21109;-70
2021/08/06 04:16:04;;;;;;;5.35;3.20;;;;;;;26.05;56.45;98477.22;1789306;78;21088;-70
2021/08/06 04:18:30;;;;;;;3.58;2.77;;;;;;;26.07;56.47;98489.97;1756411;79;21090;-69
2021/08/06 04:20:59;;;;;;;3.75;2.70;;;;;;;26.09;56.36;98495.92;1776054;78;21017;-70
2021/08/06 04:23:26;;;;;;;4.03;2.70;;;;;;;26.14;56.31;98509.20;1782239;78;21098;-70
2021/08/06 04:25:52;;;;;;;5.05;3.00;;;;;;;26.16;56.29;98507.78;1810661;78;21083;-70
2021/08/06 04:28:20;;;;;;;4.90;2.37;;;;;;;26.20;56.16;98505.27;1802122;78;21351;-70
2021/08/06 04:30:46;;;;;;;3.90;3.10;;;;;;;26.22;56.05;98503.05;1792682;78;21566;-70
2021/08/06 04:33:12;;;;;;;3.42;2.65;;;;;;;26.25;56.04;98495.62;1785759;78;21073;-70
2021/08/06 04:35:39;;;;;;;4.10;2.75;;;;;;;26.28;56.08;98493.67;1773497;78;21123;-72
2021/08/06 04:38:05;;;;;;;3.33;2.77;;;;;;;26.33;56.01;98494.95;1775746;78;21002;-71
2021/08/06 04:40:32;;;;;;;6.28;3.10;;;;;;;26.38;55.92;98495.39;1782846;78;21041;-71
2021/08/06 04:42:59;;;;;;;5.60;3.10;;;;;;;26.42;55.92;98499.12;1775565;78;21639;-70
2021/08/06 04:45:26;;;;;;;3.83;2.95;;;;;;;26.46;55.75;98504.20;1785002;79;21097;-70
2021/08/06 04:47:55;;;;;;;3.35;2.72;;;;;;;26.47;55.87;98507.99;1787280;79;21087;-71
2021/08/06 04:50:23;;;;;;;8.28;3.42;;;;;;;26.52;55.95;98509.00;1769744;79;21533;-70
2021/08/06 04:52:49;;;;;;;3.50;3.20;;;;;;;26.54;56.09;98508.97;1797674;79;21548;-70
2021/08/06 04:55:16;;;;;;;4.97;3.70;;;;;;;26.58;56.04;98513.22;1797326;79;21746;-71
2021/08/06 04:57:44;;;;;;;3.12;2.83;;;;;;;26.62;55.77;98526.55;1796955;79;21554;-70
2021/08/06 05:00:14;;;;;;;5.08;3.15;;;;;;;26.65;55.43;98508.22;1801361;79;21116;-70
2021/08/06 05:02:40;;;;;;;2.95;2.65;;;;;;;26.66;55.12;98498.38;1794626;79;21073;-70
2021/08/06 05:05:08;;;;;;;2.98;2.72;;;;;;;26.70;55.14;98495.86;1802608;79;21128;-71
2021/08/06 05:07:36;;;;;;;5.50;3.17;;;;;;;26.73;55.25;98499.31;1803473;79;21095;-71
2021/08/06 05:10:03;;;;;;;3.50;2.77;;;;;;;26.77;55.20;98502.24;1802369;79;21097;-71
2021/08/06 05:12:31;;;;;;;3.75;3.15;;;;;;;26.79;54.90;98499.48;1795245;79;21121;-71
2021/08/06 05:14:57;;;;;;;4.10;2.58;;;;;;;26.85;54.70;98523.34;1799966;79;21561;-72
2021/08/06 05:17:24;;;;;;;6.45;3.60;;;;;;;26.88;54.43;98511.81;1781409;79;21136;-70
2021/08/06 05:19:51;;;;;;;3.30;2.80;;;;;;;26.91;54.24;98514.47;1788577;79;21080;-71
2021/08/06 05:22:17;;;;;;;4.17;3.02;;;;;;;26.94;54.10;98526.14;1786235;79;21057;-72
2021/08/06 05:24:44;;;;;;;5.25;3.30;;;;;;;26.96;53.90;98531.52;1804005;78;22075;-72
2021/08/06 05:27:11;;;;;;;5.60;2.90;;;;;;;27.00;53.53;98545.34;1804496;79;21069;-73
2021/08/06 05:29:37;;;;;;;8.25;3.55;;;;;;;27.01;53.23;98546.98;1801279;78;21124;-71
2021/08/06 05:32:05;;;;;;;7.28;3.33;;;;;;;27.00;53.50;98554.32;1796840;79;21408;-73
2021/08/06 05:34:31;;;;;;;4.37;3.40;;;;;;;26.99;53.65;98554.66;1798550;79;21013;-72
2021/08/06 05:36:58;;;;;;;8.25;4.20;;;;;;;26.99;54.07;98560.10;1799250;79;21103;-71
2021/08/06 05:39:24;;;;;;;7.00;3.20;;;;;;;27.01;54.49;98564.69;1807759;79;21510;-71
2021/08/06 05:41:51;;;;;;;4.80;3.08;;;;;;;27.02;54.76;98561.66;1792832;79;21059;-71
2021/08/06 05:44:17;;;;;;;5.12;3.27;;;;;;;27.06;54.90;98572.73;1807295;79;21103;-71
2021/08/06 05:46:44;;;;;;;5.15;2.92;;;;;;;27.07;54.80;98562.09;1799202;79;21268;-70
2021/08/06 05:49:10;;;;;;;5.50;3.20;;;;;;;27.08;54.79;98560.97;1783055;79;21910;-70
2021/08/06 05:51:37;;;;;;;5.58;2.80;;;;;;;27.10;54.70;98556.58;1772130;79;21030;-70
2021/08/06 05:54:04;;;;;;;6.87;2.80;;;;;;;27.13;54.66;98557.34;1771183;80;21553;-70
2021/08/06 05:56:32;;;;;;;7.00;3.05;;;;;;;27.16;54.57;98552.09;1787050;79;21157;-69
2021/08/06 05:58:59;;;;;;;7.72;3.02;;;;;;;27.19;54.24;98570.54;1808724;79;21040;-71
2021/08/06 06:01:25;;;;;;;5.72;3.37;;;;;;;27.21;54.30;98560.13;1808014;79;21106;-70
2021/08/06 06:03:55;;;;;;;4.72;3.50;;;;;;;27.24;54.33;98580.01;1770730;80;20997;-70
2021/08/06 06:06:25;;;;;;;4.37;3.30;;;;;;;27.29;54.31;98573.63;1782564;80;20993;-70
2021/08/06 06:08:52;;;;;;;7.55;3.65;;;;;;;27.34;54.17;98573.52;1804713;79;21052;-70
2021/08/06 06:11:19;;;;;;;5.72;3.05;;;;;;;27.36;54.02;98562.31;1804990;79;21090;-71
2021/08/06 06:13:46;;;;;;;4.87;2.90;;;;;;;27.38;54.01;98570.42;1795912;79;21074;-72
2021/08/06 06:16:15;;;;;;;6.87;3.70;;;;;;;27.41;53.85;98584.83;1810524;78;21009;-71
2021/08/06 06:18:43;;;;;;;4.10;2.80;;;;;;;27.43;53.73;98581.80;1814051;79;21061;-71
2021/08/06 06:21:10;;;;;;;4.55;3.35;;;;;;;27.45;53.79;98600.02;1799345;79;21038;-71
2021/08/06 06:23:37;;;;;;;5.17;3.10;;;;;;;27.48;53.65;98586.31;1782757;80;21131;-73
2021/08/06 06:26:06;;;;;;;3.55;2.80;;;;;;;27.49;53.59;98592.83;1811375;78;21077;-72
2021/08/06 06:28:33;;;;;;;5.12;3.00;;;;;;;27.51;53.39;98590.59;1789784;79;21085;-73
2021/08/06 06:31:02;;;;;;;4.03;2.65;;;;;;;27.53;53.13;98576.09;1817172;78;21534;-72
2021/08/06 06:33:29;;;;;;;5.92;3.08;;;;;;;27.54;52.91;98576.33;1787248;80;21057;-72
2021/08/06 06:35:56;;;;;;;7.20;4.58;;;;;;;27.56;52.73;98576.02;1807725;78;21021;-72
2021/08/06 06:38:23;;;;;;;11.10;4.35;;;;;;;27.57;52.60;98593.45;1816554;78;21106;-72
2021/08/06 06:40:49;;;;;;;8.83;3.70;;;;;;;27.58;52.54;98590.98;1787105;78;21069;-70
2021/08/06 06:43:17;;;;;;;6.22;3.25;;;;;;;27.60;52.45;98574.29;1818174;78;21037;-71
2021/08/06 06:45:44;;;;;;;5.10;3.70;;;;;;;27.60;52.48;98572.39;1783192;79;21051;-71
2021/08/06 06:48:10;;;;;;;4.97;2.87;;;;;;;27.62;52.33;98574.78;1820022;78;21097;-72
2021/08/06 06:50:39;;;;;;;5.28;3.37;;;;;;;27.62;52.33;98571.52;1781524;80;22053;-75
2021/08/06 06:53:06;;;;;;;8.28;3.33;;;;;;;27.63;52.45;98582.66;1820749;78;21588;-75
2021/08/06 06:55:32;;;;;;;5.35;3.27;;;;;;;27.66;52.48;98577.14;1788926;80;21037;-77
2021/08/06 06:57:58;;;;;;;4.33;3.37;;;;;;;27.69;52.42;98577.09;1804492;78;21069;-75
2021/08/06 07:00:30;;;;;;;5.17;3.60;;;;;;;27.70;52.46;98576.80;1797536;78;21073;-76
2021/08/06 07:02:56;;;;;;;4.17;3.27;;;;;;;27.73;52.51;98583.55;1819094;78;21788;-77
2021/08/06 07:05:23;;;;;;;4.75;3.37;;;;;;;27.76;52.49;98583.73;1798726;78;21002;-76
2021/08/06 07:07:51;;;;;;;6.25;4.00;;;;;;;27.78;52.50;98598.44;1789515;78;21577;-73
2021/08/06 07:10:17;;;;;;;7.10;3.35;;;;;;;27.78;52.28;98582.06;1806379;78;21503;-73
2021/08/06 07:12:44;;;;;;;7.75;3.45;;;;;;;27.75;52.09;98577.22;1800681;78;21049;-74
2021/08/06 07:15:11;;;;;;;4.42;2.90;;;;;;;27.71;52.26;98577.59;1785521;78;21096;-73
2021/08/06 07:17:37;;;;;;;3.55;3.00;;;;;;;27.67;52.34;98565.12;1814402;78;21057;-73
2021/08/06 07:20:07;;;;;;;5.65;3.37;;;;;;;27.64;52.40;98558.91;1786828;78;21144;-72
2021/08/06 07:22:33;;;;;;;5.05;3.47;;;;;;;27.59;52.34;98566.67;1797545;78;21070;-73
2021/08/06 07:25:02;;;;;;;6.10;3.77;;;;;;;27.54;52.39;98559.96;1794785;78;21015;-73
2021/08/06 07:27:28;;;;;;;4.00;3.20;;;;;;;27.45;52.52;98569.45;1784746;79;21081;-74
2021/08/06 07:29:54;;;;;;;5.80;3.30;;;;;;;27.39;52.79;98565.77;1796216;79;21592;-72
2021/08/06 07:32:22;;;;;;;5.85;3.52;;;;;;;27.35;52.95;98567.50;1780307;79;21033;-73
2021/08/06 07:34:49;;;;;;;8.88;4.05;;;;;;;27.31;53.21;98567.31;1803013;79;21052;-73
2021/08/06 07:37:15;;;;;;;3.58;3.27;;;;;;;27.26;53.41;98575.05;1781592;79;21052;-73
2021/08/06 07:39:41;;;;;;;4.90;3.95;;;;;;;27.25;53.68;98576.72;1780122;79;21094;-72
2021/08/06 07:42:08;;;;;;;8.08;3.65;;;;;;;27.23;53.76;98579.72;1778366;80;21020;-75
2021/08/06 07:44:35;;;;;;;4.22;3.12;;;;;;;27.22;53.86;98595.84;1770009;80;21631;-74
2021/08/06 07:47:01;;;;;;;5.45;3.95;;;;;;;27.17;54.01;98580.95;1765909;79;21050;-74
2021/08/06 07:49:29;;;;;;;6.47;3.87;;;;;;;27.15;54.13;98605.55;1786381;79;21105;-72
2021/08/06 07:51:56;;;;;;;3.75;3.37;;;;;;;27.13;54.40;98602.31;1792567;80;21091;-74
2021/08/06 07:54:22;;;;;;;5.50;3.98;;;;;;;27.13;54.35;98609.94;1779753;79;21567;-74
2021/08/06 07:56:49;;;;;;;4.62;4.17;;;;;;;27.12;54.35;98625.22;1770722;79;21520;-73
2021/08/06 07:59:19;;;;;;;6.17;3.85;;;;;;;27.10;54.26;98620.63;1751688;80;21061;-74
2021/08/06 08:01:44;;;;;;;4.00;3.50;;;;;;;27.05;54.23;98605.20;1816419;78;21541;-74
2021/08/06 08:04:10;;;;;;;5.17;3.95;;;;;;;27.03;54.33;98585.63;1805951;77;21292;-72
2021/08/06 08:06:38;;;;;;;6.65;3.35;;;;;;;27.02;54.28;98584.83;1810008;78;21595;-72
2021/08/06 08:09:05;;;;;;;5.00;3.98;;;;;;;27.02;54.25;98587.55;1802980;78;21566;-74
2021/08/06 08:11:31;;;;;;;5.40;3.67;;;;;;;27.03;54.17;98588.35;1806314;78;21049;-74
2021/08/06 08:13:58;;;;;;;7.70;3.98;;;;;;;27.05;54.29;98595.66;1810628;78;21093;-73
2021/08/06 08:16:24;;;;;;;4.30;3.90;;;;;;;27.06;54.64;98600.81;1780801;78;21112;-74
2021/08/06 08:18:53;;;;;;;6.22;4.42;;;;;;;27.10;54.73;98594.20;1787349;80;21017;-73
2021/08/06 08:21:19;;;;;;;6.67;3.95;;;;;;;27.13;54.77;98610.50;1786382;79;21062;-73
2021/08/06 08:23:46;;;;;;;7.78;4.28;;;;;;;27.14;54.97;98617.02;1789357;80;21807;-75
2021/08/06 08:26:13;;;;;;;6.30;4.22;;;;;;;27.15;55.04;98613.72;1806993;79;21477;-75
2021/08/06 08:28:39;;;;;;;4.95;3.75;;;;;;;27.20;54.89;98587.73;1788278;79;21091;-73
2021/08/06 08:31:06;;;;;;;8.03;4.62;;;;;;;27.23;54.82;98617.09;1782712;79;21223;-73
2021/08/06 08:33:33;;;;;;;6.60;3.67;;;;;;;27.27;54.60;98570.41;1795139;79;21057;-73
2021/08/06 08:36:01;;;;;;;6.37;3.75;;;;;;;27.30;54.64;98579.91;1792219;79;21549;-73
2021/08/06 08:38:27;;;;;;;6.53;4.35;;;;;;;27.34;54.29;98582.27;1803191;79;21533;-74
2021/08/06 08:40:55;;;;;;;5.90;4.00;;;;;;;27.36;54.13;98578.67;1789172;79;21113;-72
2021/08/06 08:43:22;;;;;;;8.28;4.03;;;;;;;27.39;54.05;98576.14;1796222;79;21482;-72
2021/08/06 08:45:48;;;;;;;9.40;4.22;;;;;;;27.39;54.06;98567.97;1752441;79;21072;-72
2021/08/06 08:48:17;;;;;;;7.87;3.85;;;;;;;27.40;54.00;98587.85;1798476;79;20976;-73
2021/08/06 08:50:44;;;;;;;5.72;3.92;;;;;;;27.40;54.06;98603.65;1800598;79;21029;-73
2021/08/06 08:53:10;;;;;;;6.65;4.30;;;;;;;27.42;54.06;98601.98;1798943;79;21098;-73
2021/08/06 08:55:38;;;;;;;8.50;4.65;;;;;;;27.45;53.84;98606.27;1801893;79;21076;-73
2021/08/06 08:58:06;;;;;;;5.55;4.47;;;;;;;27.47;53.44;98593.70;1799438;79;21539;-73
2021/08/06 09:00:33;;;;;;;4.37;3.90;;;;;;;27.49;53.36;98578.36;1804226;78;21045;-74
2021/08/06 09:03:00;;;;;;;6.72;4.37;;;;;;;27.51;53.35;98587.08;1795185;79;21076;-73
2021/08/06 09:05:28;;;;;;;4.40;3.95;;;;;;;27.52;53.25;98584.02;1804108;79;21764;-74
2021/08/06 09:07:58;;;;;;;6.37;4.08;;;;;;;27.54;53.33;98586.44;1808036;79;21016;-73
2021/08/06 09:10:40;;;;;;;6.67;4.62;;;;;;;27.55;53.24;98601.14;1802850;79;21316;-73
2021/08/06 09:13:24;;;;;;;7.90;3.98;;;;;;;27.58;53.12;98592.35;1798369;79;21482;-72
2021/08/06 09:15:57;;;;;;;5.03;3.80;;;;;;;27.59;52.78;98588.49;1799329;79;21077;-73
2021/08/06 09:18:31;;;;;;;4.87;3.80;;;;;;;27.61;52.61;98593.08;1797943;79;21086;-73
2021/08/06 09:21:17;;;;;;;6.42;4.05;;;;;;;27.62;52.45;98583.80;1780205;79;21049;-74
2021/08/06 09:23:56;;;;;;;5.15;4.00;;;;;;;27.62;52.66;98602.89;1780654;79;21329;-73
2021/08/06 09:26:41;;;;;;;6.00;3.95;;;;;;;27.67;52.65;98597.06;1780276;79;21129;-73
2021/08/06 09:29:20;;;;;;;7.67;4.40;;;;;;;27.67;52.62;98595.70;1802001;78;21467;-75
2021/08/06 09:31:57;;;;;;;8.73;5.08;;;;;;;27.71;52.68;98584.41;1804145;78;21106;-74
2021/08/06 09:34:29;;;;;;;6.92;4.17;;;;;;;27.73;52.61;98598.55;1801825;78;21006;-73
2021/08/06 09:37:14;;;;;;;6.83;4.20;;;;;;;27.76;52.51;98591.13;1800806;78;21097;-73
2021/08/06 09:39:49;;;;;;;6.87;4.12;;;;;;;27.77;52.35;98589.42;1802402;78;21026;-75
2021/08/06 09:42:29;;;;;;;4.55;3.85;;;;;;;27.77;52.04;98574.98;1757905;80;21089;-73
2021/08/06 09:45:06;;;;;;;5.85;4.20;;;;;;;27.81;51.92;98590.41;1790331;79;21148;-73
2021/08/06 09:47:34;;;;;;;6.20;4.03;;;;;;;27.85;51.56;98588.70;1791863;79;21467;-72
2021/08/06 09:50:06;;;;;;;5.42;4.17;;;;;;;27.87;51.53;98588.37;1795760;79;21033;-73
2021/08/06 09:52:38;;;;;;;6.17;3.98;;;;;;;27.91;51.40;98568.13;1806958;78;21116;-74
2021/08/06 09:55:07;;;;;;;6.53;4.13;;;;;;;27.97;50.87;98550.49;1809760;78;21041;-73
2021/08/06 09:57:33;;;;;;;5.92;3.80;;;;;;;27.97;50.87;98550.49;1782969;78;21413;-73
2021/08/06 10:00:00;;;;;;;5.92;4.05;;;;;;;28.01;50.76;98547.41;1800514;78;21165;-73
2021/08/06 10:02:30;;;;;;;7.10;4.75;;;;;;;28.03;50.69;98535.05;1760492;80;21039;-73
2021/08/06 10:05:09;;;;;;;7.00;4.97;;;;;;;28.07;50.60;98544.79;1799985;78;21131;-74
2021/08/06 10:07:45;;;;;;;7.08;4.87;;;;;;;28.10;50.28;98538.69;1783889;78;21055;-74
2021/08/06 10:10:30;;;;;;;8.10;4.83;;;;;;;28.09;50.14;98524.02;1782297;79;21132;-74
2021/08/06 10:12:59;;;;;;;6.33;4.90;;;;;;;28.10;50.35;98524.24;1762947;79;21062;-73
2021/08/06 10:15:26;;;;;;;7.30;4.25;;;;;;;28.10;50.23;98521.52;1779100;79;21496;-74
2021/08/06 10:17:54;;;;;;;5.80;4.55;;;;;;;28.12;50.10;98506.98;1781976;79;21096;-74
2021/08/06 10:20:23;;;;;;;8.08;4.80;;;;;;;28.12;50.15;98526.89;1782735;79;21622;-73
2021/08/06 10:22:53;;;;;;;6.80;4.45;;;;;;;28.17;49.89;98517.78;1775695;79;21200;-72
2021/08/06 10:25:21;;;;;;;7.70;4.58;;;;;;;28.20;49.85;98507.58;1758388;80;22477;-75
2021/08/06 10:27:48;;;;;;;6.95;4.60;;;;;;;28.24;49.73;98503.12;1773045;79;21062;-73
2021/08/06 10:30:27;;;;;;;7.42;4.40;;;;;;;28.28;49.63;98513.66;1771440;79;21562;-73
2021/08/06 10:33:28;;;;;;;8.33;4.58;;;;;;;28.34;49.41;98508.86;1779917;79;21581;-74
2021/08/06 10:36:06;;;;;;;8.90;4.65;;;;;;;28.39;49.10;98501.88;1770771;79;21788;-74
2021/08/06 10:38:41;;;;;;;6.80;3.98;;;;;;;28.44;48.93;98488.08;1779447;79;21046;-74
2021/08/06 10:41:23;;;;;;;8.55;4.10;;;;;;;28.49;48.78;98482.48;1772413;79;21100;-73
2021/08/06 10:44:00;;;;;;;5.97;4.50;;;;;;;28.55;48.98;98479.88;1773833;79;21103;-73
2021/08/06 10:46:30;;;;;;;6.10;4.12;;;;;;;28.65;48.89;98482.87;1770204;79;21068;-74
2021/08/06 10:48:56;;;;;;;5.90;3.95;;;;;;;28.75;49.14;98479.03;1764042;79;21167;-73
2021/08/06 10:51:29;;;;;;;7.60;4.95;;;;;;;28.83;48.97;98493.26;1774747;79;21140;-74
2021/08/06 10:54:05;;;;;;;6.90;4.83;;;;;;;28.89;48.49;98507.00;1771982;79;21066;-73
2021/08/06 10:56:33;;;;;;;5.17;4.62;;;;;;;28.94;48.22;98497.87;1773547;79;21032;-75
2021/08/06 10:59:11;;;;;;;5.70;4.70;;;;;;;28.98;48.35;98512.50;1778181;79;21572;-74
2021/08/06 11:01:48;;;;;;;5.12;4.28;;;;;;;29.04;48.15;98535.02;1777254;79;21137;-73
2021/08/06 11:04:20;;;;;;;5.62;3.90;;;;;;;29.05;47.89;98518.84;1774714;79;21013;-72
2021/08/06 11:06:48;;;;;;;6.80;4.92;;;;;;;29.05;47.81;98501.88;1776627;79;21073;-73
2021/08/06 11:09:33;;;;;;;12.23;5.53;;;;;;;29.06;48.00;98502.13;1775565;79;21675;-73
2021/08/06 11:12:06;;;;;;;6.45;4.17;;;;;;;29.10;47.86;98505.03;1772352;79;21089;-73
2021/08/06 11:14:47;;;;;;;6.85;4.12;;;;;;;29.12;47.67;98526.84;1776419;79;21193;-73
2021/08/06 11:17:18;;;;;;;6.35;4.45;;;;;;;29.13;47.52;98523.00;1780149;79;21040;-73
2021/08/06 11:19:56;;;;;;;5.67;5.10;;;;;;;29.13;47.47;98532.57;1776488;79;21579;-74
2021/08/06 11:22:41;;;;;;;6.40;4.67;;;;;;;29.13;47.55;98503.86;1773897;79;21033;-73
2021/08/06 11:25:26;;;;;;;6.85;5.17;;;;;;;29.14;47.83;98528.69;1802268;78;20986;-74
2021/08/06 11:28:00;;;;;;;6.95;5.08;;;;;;;29.15;48.17;98532.25;1766627;80;21569;-74
2021/08/06 11:30:34;;;;;;;9.05;5.10;;;;;;;29.12;48.52;98539.14;1780141;79;21524;-72
2021/08/06 11:33:07;;;;;;;9.23;4.75;;;;;;;29.14;48.73;98520.49;1776899;79;21064;-74
2021/08/06 11:35:38;;;;;;;6.78;4.92;;;;;;;29.15;48.56;98515.84;1785790;78;21143;-73
2021/08/06 11:39:28;;;;;;;8.50;5.90;;;;;;;29.18;48.36;98521.45;1848136;75;22647;-73
2021/08/06 11:41:54;;;;;;;8.95;5.17;;;;;;;29.10;48.31;98542.73;1815729;77;20950;-74
2021/08/06 11:44:21;;;;;;;8.28;5.00;;;;;;;29.09;48.39;98539.77;1811844;77;21625;-73
2021/08/06 11:46:51;;;;;;;10.18;5.75;;;;;;;29.08;48.50;98523.69;1819862;77;21031;-73